Storm Wave — CZ9636 — position and weather

sailwx.info

Track history (hours):
 
Tides and Currents Weather Stations Pressure Air Temp Water Temp Dewpoint Dewpoint Depression Visibility Wind Speed Wind Dir Waves Ship Positions

Storm Wave

Last reported at 2018-Feb-18 09:00 UTC. Time now 2018-Feb-18 09:13 UTC.
Position N 49°11' W 122°60'.

Length 19 m; draft 4.3 m.

Type: Tug. MMSI: 316001222.

Date/timePositionNaut miles runAvg speedWind from/ knotsBaromVisibWave heightAir tempDewpointWater temp
2018-Feb-18 09:00N 49°11' W 122°60'6204.7
2018-Feb-18 08:58N 49°17' W 122°58'714.0
2018-Feb-18 08:30N 49°11' W 122°55'723969.7
2018-Feb-18 08:30N 49°17' W 122°58'0 0.0
2018-Feb-18 08:00N 49°17' W 122°58'81417.8
2018-Feb-18 08:00N 49°10' W 122°57'4 9.0
2018-Feb-18 07:30N 49°13' W 122°52'610814.0
2018-Feb-18 07:30N 49°17' W 122°58'1119.9
2018-Feb-18 06:56N 49°13' W 122°43'2 5.1
2018-Feb-18 06:30N 49°12' W 122°40'0 0.1
2018-Feb-18 06:00N 49°12' W 122°40'1 1.5
2018-Feb-18 05:26N 49°12' W 122°41'2 3.8
2018-Feb-18 05:00N 49°13' W 122°43'2 4.4
2018-Feb-18 04:30N 49°13' W 122°47'3 5.4
2018-Feb-18 04:00N 49°13' W 122°51'2 4.3
2018-Feb-18 03:30N 49°12' W 122°54'1 2.7
2018-Feb-18 02:59N 49°11' W 122°55'2 3.4
2018-Feb-18 02:30N 49°10' W 122°56'2 5.0
2018-Feb-18 02:00N 49°09' W 123°00'3 5.4
2018-Feb-18 01:29N 49°08' W 123°04'2 5.2
2018-Feb-18 01:00N 49°07' W 123°07'3 5.0
2018-Feb-18 00:30N 49°07' W 123°11'3 5.0
2018-Feb-17 23:58N 49°08' W 123°15'2 5.1
2018-Feb-17 23:29N 49°06' W 123°18'1 3.0
2018-Feb-17 23:00N 49°06' W 123°20'3 5.8
2018-Feb-17 22:29N 49°08' W 123°23'3 6.2
2018-Feb-17 21:59N 49°11' W 123°26'3 6.3
2018-Feb-17 21:29N 49°13' W 123°29'3 6.3
2018-Feb-17 21:00N 49°16' W 123°32'3 5.9
2018-Feb-17 20:29N 49°18' W 123°35'2 5.2
2018-Feb-17 20:00N 49°20' W 123°38'1 0.1
2018-Feb-17 12:52N 49°20' W 123°37'2 6.5
2018-Feb-17 12:29N 49°18' W 123°35'3 6.6
2018-Feb-17 12:00N 49°16' W 123°31'4 6.1
2018-Feb-17 11:23N 49°13' W 123°27'2 6.3
2018-Feb-17 11:00N 49°12' W 123°25'3 6.2
2018-Feb-17 10:29N 49°09' W 123°22'3 5.7
2018-Feb-17 09:57N 49°06' W 123°20'3 6.2
2018-Feb-17 09:27N 49°08' W 123°15'3 6.4
2018-Feb-17 09:00N 49°07' W 123°11'4 8.8
2018-Feb-17 08:30N 49°08' W 123°04'5 9.0
2018-Feb-17 08:00N 49°09' W 122°58'4 8.9
2018-Feb-17 07:30N 49°13' W 122°53'0 0.3
2018-Feb-17 07:00N 49°13' W 122°54'2 4.4
2018-Feb-17 06:30N 49°13' W 122°50'1 2.4
2018-Feb-17 06:00N 49°13' W 122°48'0 0.9
2018-Feb-17 05:30N 49°13' W 122°49'3 5.2
2018-Feb-17 05:00N 49°13' W 122°53'1 1.9
2018-Feb-17 04:30N 49°12' W 122°54'1 1.7
2018-Feb-17 04:00N 49°13' W 122°53'6115.7
2018-Feb-17 03:57N 49°17' W 122°58'614.4
2018-Feb-17 03:30N 49°11' W 122°55'724530.2
2018-Feb-17 03:30N 49°18' W 122°59'2 4.4
2018-Feb-17 03:00N 49°18' W 123°02'9468.4
2018-Feb-17 02:59N 49°09' W 122°57'1123.4
2018-Feb-17 02:30N 49°18' W 123°07'105246.3
2018-Feb-17 02:30N 49°09' W 123°01'2 4.6
2018-Feb-17 02:00N 49°08' W 123°04'1243583.9
2018-Feb-17 02:00N 49°19' W 123°12'4 8.6
2018-Feb-17 01:30N 49°18' W 123°19'142715.8
2018-Feb-17 01:30N 49°07' W 123°07'1631.5
2018-Feb-17 01:00N 49°17' W 123°24'14462.4
2018-Feb-17 00:59N 49°07' W 123°10'2 4.7
2018-Feb-17 00:30N 49°08' W 123°13'14709.0
2018-Feb-17 00:29N 49°17' W 123°31'4 7.9
2018-Feb-16 23:59N 49°16' W 123°37'16270.1
2018-Feb-16 23:56N 49°06' W 123°17'2 4.5
2018-Feb-16 23:30N 49°06' W 123°20'3 5.0
2018-Feb-16 22:59N 49°08' W 123°23'3 5.2
2018-Feb-16 22:30N 49°10' W 123°26'3 5.4
2018-Feb-16 22:00N 49°12' W 123°29'3 5.4
2018-Feb-16 21:30N 49°13' W 123°32'3 5.1
2018-Feb-16 21:00N 49°15' W 123°35'2 4.0
2018-Feb-16 20:29N 49°17' W 123°36'1429.3
2018-Feb-16 19:59N 49°12' W 123°57'166264.1
2018-Feb-16 19:59N 49°16' W 123°34'4 7.1
2018-Feb-16 19:28N 49°13' W 123°30'3 6.8
2018-Feb-16 19:00N 49°11' W 123°27'4 6.8
2018-Feb-16 18:28N 49°08' W 123°23'5 5.9
2018-Feb-16 17:40N 49°07' W 123°16'1 7.6
2018-Feb-16 17:30N 49°08' W 123°14'285100.6
2018-Feb-16 17:29N 49°12' W 123°57'3261.6
2018-Feb-16 16:58N 49°07' W 123°08'3 6.4
2018-Feb-16 16:30N 49°08' W 123°04'3 6.5
2018-Feb-16 16:00N 49°09' W 123°00'1 1.9
2018-Feb-16 15:30N 49°09' W 122°59'2 4.9
2018-Feb-16 15:00N 49°11' W 122°55'2 4.7
2018-Feb-16 14:30N 49°13' W 122°53'34120.1
2018-Feb-16 14:13N 49°15' W 123°45'34153.7
2018-Feb-16 14:00N 49°13' W 122°53'33777.1
2018-Feb-16 13:58N 49°15' W 123°43'3268.2
2018-Feb-16 13:30N 49°11' W 122°55'2958.5
2018-Feb-16 13:00N 49°16' W 123°39'2811246.8
2018-Feb-16 13:00N 49°09' W 122°57'2 3.9
2018-Feb-16 12:30N 49°09' W 122°60'257433.4
2018-Feb-16 12:30N 49°16' W 123°36'2 3.1
2018-Feb-16 12:00N 49°17' W 123°34'22557.9
2018-Feb-16 11:58N 49°08' W 123°03'2 4.1
2018-Feb-16 11:30N 49°07' W 123°05'202386.9
2018-Feb-16 11:30N 49°17' W 123°31'1837.1
2018-Feb-16 11:00N 49°06' W 123°08'173051.7
2018-Feb-16 11:00N 49°17' W 123°28'2 4.5
2018-Feb-16 10:30N 49°18' W 123°25'14380.8
2018-Feb-16 10:28N 49°07' W 123°12'2 4.1
2018-Feb-16 10:00N 49°08' W 123°15'114126.4
2018-Feb-16 10:00N 49°18' W 123°21'2 4.4
2018-Feb-16 09:30N 49°19' W 123°18'121611.5
2018-Feb-16 09:30N 49°07' W 123°17'1225.0
2018-Feb-16 09:00N 49°19' W 123°15'13485.2
2018-Feb-16 08:58N 49°06' W 123°20'1430.0
2018-Feb-16 08:30N 49°19' W 123°12'13494.0
2018-Feb-16 08:29N 49°07' W 123°21'1430.2
2018-Feb-16 08:00N 49°19' W 123°09'141315.7
2018-Feb-16 07:59N 49°08' W 123°23'1531.4
2018-Feb-16 07:30N 49°18' W 123°05'151124.6
2018-Feb-16 07:30N 49°10' W 123°25'1836.3
2018-Feb-16 07:00N 49°18' W 123°01'193546.9
2018-Feb-16 07:00N 49°11' W 123°27'1 1.9
2018-Feb-16 06:30N 49°12' W 123°28'203505.0
2018-Feb-16 06:30N 49°17' W 122°58'0 0.0
2018-Feb-16 06:00N 49°17' W 122°58'211607.2
2018-Feb-16 06:00N 49°12' W 123°30'2143.1
2018-Feb-16 05:30N 49°17' W 122°58'21771.3
2018-Feb-16 05:29N 49°13' W 123°31'2145.3
2018-Feb-16 05:00N 49°17' W 122°58'22157.4
2018-Feb-16 04:52N 49°14' W 123°32'2260.4
2018-Feb-16 04:30N 49°17' W 122°58'22614.5
2018-Feb-16 04:28N 49°15' W 123°32'2247.2
2018-Feb-16 04:00N 49°17' W 122°58'231653.3
2018-Feb-16 03:59N 49°16' W 123°33'2346.3
2018-Feb-16 03:30N 49°17' W 122°58'23230.3
2018-Feb-16 03:24N 49°17' W 123°34'2358.4
2018-Feb-16 03:00N 49°17' W 122°58'241701.8
2018-Feb-16 03:00N 49°17' W 123°35'2448.6
2018-Feb-16 02:30N 49°17' W 122°58'25591.2
2018-Feb-16 02:28N 49°19' W 123°36'2546.9
2018-Feb-16 01:56N 49°17' W 122°58'0 0.0
2018-Feb-16 01:30N 49°17' W 122°58'0 0.0
2018-Feb-16 01:00N 49°17' W 122°58'0 0.0
2018-Feb-16 00:30N 49°17' W 122°58'0 0.0
2018-Feb-16 00:00N 49°17' W 122°58'0 0.0
2018-Feb-15 23:30N 49°17' W 122°58'0 0.0
2018-Feb-15 23:00N 49°17' W 122°58'0 0.0
2018-Feb-15 22:30N 49°17' W 122°58'0 0.0
2018-Feb-15 22:00N 49°17' W 122°58'0 0.0
2018-Feb-15 21:30N 49°17' W 122°58'0 0.0
2018-Feb-15 21:00N 49°17' W 122°58'2 3.6
2018-Feb-15 20:30N 49°18' W 122°56'1 2.5
2018-Feb-15 20:00N 49°17' W 122°54'3 5.6
2018-Feb-15 19:28N 49°17' W 122°58'0 0.0
2018-Feb-15 19:00N 49°17' W 122°58'0 0.0
2018-Feb-15 18:30N 49°17' W 122°58'0 0.0
2018-Feb-15 18:00N 49°17' W 122°58'2682.6
2018-Feb-15 17:42N 49°20' W 123°38'2 8.5
2018-Feb-15 17:30N 49°19' W 123°36'248011.8
2018-Feb-15 17:30N 49°17' W 122°58'0 0.0
2018-Feb-15 17:00N 49°17' W 122°58'221304.9
2018-Feb-15 16:59N 49°15' W 123°32'2244.5
2018-Feb-15 16:30N 49°17' W 122°58'207935.9
2018-Feb-15 16:30N 49°12' W 123°28'2039.9
2018-Feb-15 16:00N 49°17' W 122°58'192297.8
2018-Feb-15 16:00N 49°09' W 123°24'2142.6
2018-Feb-15 15:30N 49°17' W 122°54'203583.1
2018-Feb-15 15:30N 49°06' W 123°20'4 7.4
2018-Feb-15 15:00N 49°08' W 123°15'1628922.4
2018-Feb-15 15:00N 49°17' W 122°55'3 5.0
2018-Feb-15 14:30N 49°18' W 122°59'13674.0
2018-Feb-15 14:29N 49°07' W 123°09'1326.9
2018-Feb-15 14:00N 49°17' W 122°58'11826.1
2018-Feb-15 14:00N 49°07' W 123°05'1123.1
2018-Feb-15 13:30N 49°17' W 122°58'101200.0
2018-Feb-15 13:30N 49°08' W 123°04'1021.0
2018-Feb-15 13:00N 49°17' W 122°58'81046.1
2018-Feb-15 13:00N 49°09' W 122°60'816.5
2018-Feb-15 12:30N 49°17' W 122°58'8599.1
2018-Feb-15 12:30N 49°09' W 122°59'1 1.4
2018-Feb-15 12:00N 49°09' W 122°60'82656.2
2018-Feb-15 12:00N 49°17' W 122°58'0 0.0
2018-Feb-15 11:30N 49°17' W 122°58'93394.1
2018-Feb-15 11:30N 49°08' W 123°03'3 5.6
2018-Feb-15 11:00N 49°07' W 123°06'1221339.7
2018-Feb-15 11:00N 49°17' W 122°58'0 0.0
2018-Feb-15 10:30N 49°17' W 122°58'132641.1
2018-Feb-15 10:30N 49°07' W 123°10'1326.7
2018-Feb-15 10:00N 49°17' W 122°58'146236.8
2018-Feb-15 10:00N 49°08' W 123°14'1426.9
2018-Feb-15 09:29N 49°17' W 122°58'16284.6
2018-Feb-15 09:26N 49°07' W 123°17'1638.6
2018-Feb-15 09:00N 49°17' W 122°58'18832.7
2018-Feb-15 08:59N 49°06' W 123°20'2 3.2
2018-Feb-15 08:30N 49°06' W 123°22'1968698.9
2018-Feb-15 08:30N 49°17' W 122°58'0 0.0
2018-Feb-15 08:00N 49°17' W 122°58'18557.4
2018-Feb-15 07:58N 49°08' W 123°23'3 5.6
2018-Feb-15 07:30N 49°11' W 123°22'1760493.0
2018-Feb-15 07:30N 49°17' W 122°58'0 0.0
2018-Feb-15 07:00N 49°17' W 122°58'15785.1
2018-Feb-15 06:59N 49°13' W 123°21'2 5.0
2018-Feb-15 06:30N 49°16' W 123°20'2 4.3
2018-Feb-15 06:00N 49°18' W 123°21'2 3.4
2018-Feb-15 05:30N 49°20' W 123°22'1 1.6
2018-Feb-15 04:59N 49°20' W 123°23'1 2.6
2018-Feb-15 04:29N 49°20' W 123°25'1 2.6
2018-Feb-15 04:00N 49°19' W 123°27'2 3.4
2018-Feb-15 03:30N 49°20' W 123°29'2 4.6
2018-Feb-15 03:00N 49°21' W 123°32'3 4.5
2018-Feb-15 02:25N 49°22' W 123°36'2 4.6
2018-Feb-15 01:56N 49°23' W 123°39'3 0.2
2018-Feb-14 07:52N 49°22' W 123°35'2 4.2
2018-Feb-14 07:28N 49°22' W 123°32'2 4.1
2018-Feb-14 07:00N 49°21' W 123°30'2 4.0
2018-Feb-14 06:30N 49°20' W 123°27'19135.6
2018-Feb-14 06:22N 49°17' W 122°58'0 0.3
2018-Feb-14 06:00N 49°18' W 122°59'166437.7
2018-Feb-14 06:00N 49°19' W 123°23'3 5.5
2018-Feb-14 05:30N 49°18' W 123°20'121070.7
2018-Feb-14 05:30N 49°18' W 123°01'3 5.2
2018-Feb-14 05:00N 49°18' W 123°05'81016.2
2018-Feb-14 05:00N 49°16' W 123°17'612.4
2018-Feb-14 04:30N 49°19' W 123°09'6237.3
2018-Feb-14 04:29N 49°15' W 123°15'4 8.3
2018-Feb-14 04:00N 49°19' W 123°14'6430.9
2018-Feb-14 04:00N 49°13' W 123°11'714.9
2018-Feb-14 03:30N 49°18' W 123°19'10167.4
2018-Feb-14 03:27N 49°12' W 123°06'1329.8
2018-Feb-14 03:00N 49°17' W 123°24'131616.0
2018-Feb-14 03:00N 49°12' W 123°05'0 0.0
2018-Feb-14 02:30N 49°12' W 123°05'2041.2
2018-Feb-14 02:00N 49°16' W 123°35'208018.6
2018-Feb-14 02:00N 49°12' W 123°05'0 0.0
2018-Feb-14 01:30N 49°12' W 123°05'1 1.7
2018-Feb-14 01:00N 49°12' W 123°06'0 0.0
2018-Feb-14 00:30N 49°12' W 123°06'0 0.0
2018-Feb-13 23:56N 49°12' W 123°06'0 0.0
2018-Feb-13 23:30N 49°12' W 123°06'0 0.0
2018-Feb-13 22:58N 49°12' W 123°06'0 0.0
2018-Feb-13 22:30N 49°12' W 123°06'0 0.0
2018-Feb-13 22:00N 49°12' W 123°06'0 0.0
2018-Feb-13 21:28N 49°12' W 123°06'0 0.0
2018-Feb-13 20:55N 49°12' W 123°06'0 0.0
2018-Feb-13 20:30N 49°12' W 123°06'0 0.0
2018-Feb-13 19:59N 49°12' W 123°06'0 0.0
2018-Feb-13 19:30N 49°12' W 123°06'0 0.0
2018-Feb-13 19:00N 49°12' W 123°06'0 0.0
2018-Feb-13 18:30N 49°12' W 123°06'0 0.0
2018-Feb-13 17:59N 49°12' W 123°06'0 0.0
2018-Feb-13 17:30N 49°12' W 123°06'0 0.0
2018-Feb-13 17:00N 49°12' W 123°06'0 0.0
2018-Feb-13 16:30N 49°12' W 123°06'0 0.0
2018-Feb-13 16:00N 49°12' W 123°06'30140.1
2018-Feb-13 15:47N 49°13' W 123°53'32113.5
2018-Feb-13 15:30N 49°12' W 123°03'31654.3
2018-Feb-13 15:28N 49°13' W 123°51'3575.0
2018-Feb-13 15:00N 49°11' W 122°59'3 6.3
2018-Feb-13 14:28N 49°12' W 122°54'3474.8
2018-Feb-13 14:01N 49°15' W 123°45'371416.7
2018-Feb-13 14:00N 49°13' W 122°49'36300.8
2018-Feb-13 13:53N 49°15' W 123°45'39101.7
2018-Feb-13 13:29N 49°15' W 122°44'38520.2
2018-Feb-13 13:25N 49°16' W 123°43'3993.5
2018-Feb-13 13:00N 49°15' W 122°43'37884.0
2018-Feb-13 12:58N 49°16' W 123°40'3883.4
2018-Feb-13 12:30N 49°17' W 122°42'37685.1
2018-Feb-13 12:27N 49°16' W 123°38'1 3.3
2018-Feb-13 12:00N 49°16' W 123°36'3612966.9
2018-Feb-13 12:00N 49°19' W 122°41'0 0.6
2018-Feb-13 11:30N 49°19' W 122°40'34768.7
2018-Feb-13 11:27N 49°17' W 123°33'3477.3
2018-Feb-13 11:00N 49°17' W 122°40'335575.1
2018-Feb-13 11:00N 49°17' W 123°30'3161.6
2018-Feb-13 10:30N 49°15' W 122°43'2951456.7
2018-Feb-13 10:30N 49°18' W 123°27'2754.1
2018-Feb-13 10:00N 49°14' W 122°46'259003.6
2018-Feb-13 10:00N 49°18' W 123°23'2 4.2
2018-Feb-13 09:30N 49°19' W 123°20'23287.4
2018-Feb-13 09:26N 49°14' W 122°46'2149.3
2018-Feb-13 09:00N 49°19' W 123°17'21843.2
2018-Feb-13 08:58N 49°14' W 122°46'0 0.9
2018-Feb-13 08:30N 49°14' W 122°45'1969737.3
2018-Feb-13 08:30N 49°19' W 123°14'1938.2
2018-Feb-13 08:00N 49°14' W 122°46'171502.8
2018-Feb-13 07:59N 49°19' W 123°11'1632.7
2018-Feb-13 07:30N 49°13' W 122°48'144595.9
2018-Feb-13 07:30N 49°19' W 123°08'1223.8
2018-Feb-13 07:00N 49°13' W 122°52'916962.7
2018-Feb-13 07:00N 49°18' W 123°05'3 5.5
2018-Feb-13 06:30N 49°18' W 123°00'73077.6
2018-Feb-13 06:30N 49°12' W 122°55'612.7
2018-Feb-13 06:00N 49°18' W 122°58'7627.7
2018-Feb-13 06:00N 49°11' W 122°58'2 4.2
2018-Feb-13 05:30N 49°12' W 123°01'7771.0
2018-Feb-13 05:30N 49°18' W 122°56'1 2.4
2018-Feb-13 05:00N 49°17' W 122°55'0 0.9
2018-Feb-13 04:30N 49°17' W 122°54'11149.3
2018-Feb-13 04:26N 49°12' W 123°09'2 4.2
2018-Feb-13 04:00N 49°13' W 123°11'121086.6
2018-Feb-13 04:00N 49°18' W 122°54'1428.4
2018-Feb-13 03:30N 49°14' W 123°14'142380.3
2018-Feb-13 03:30N 49°18' W 122°54'1429.2
2018-Feb-13 03:00N 49°15' W 123°16'141447.2
2018-Feb-13 03:00N 49°18' W 122°54'0 0.0
2018-Feb-13 02:30N 49°18' W 122°54'142359.0
2018-Feb-13 02:30N 49°15' W 123°15'0 0.0
2018-Feb-13 02:00N 49°15' W 123°15'14617.8
2018-Feb-13 01:58N 49°18' W 122°54'1430.4
2018-Feb-13 01:30N 49°15' W 123°15'14463.4
2018-Feb-13 01:28N 49°18' W 122°54'1430.9
2018-Feb-13 01:00N 49°15' W 123°15'14823.7
2018-Feb-13 00:59N 49°18' W 122°54'1429.4
2018-Feb-13 00:30N 49°15' W 123°15'142331.9
2018-Feb-13 00:29N 49°17' W 122°54'1327.7
2018-Feb-13 00:00N 49°14' W 123°14'131608.1
2018-Feb-13 00:00N 49°17' W 122°54'1122.3
2018-Feb-12 23:30N 49°12' W 123°08'111969.8
2018-Feb-12 23:30N 49°17' W 122°54'0 0.0
2018-Feb-12 23:00N 49°17' W 122°54'101839.5
2018-Feb-12 23:00N 49°12' W 123°06'1019.5
2018-Feb-12 22:30N 49°17' W 122°54'101204.8
2018-Feb-12 22:30N 49°12' W 123°06'0 0.0
2018-Feb-12 22:00N 49°12' W 123°06'10383.9
2018-Feb-12 21:59N 49°17' W 122°54'1020.0
2018-Feb-12 21:30N 49°12' W 123°06'10685.3
2018-Feb-12 21:29N 49°17' W 122°54'0 0.0
2018-Feb-12 21:00N 49°17' W 122°54'101127.0
2018-Feb-12 21:00N 49°12' W 123°06'1019.5
2018-Feb-12 20:30N 49°17' W 122°54'10231.4
2018-Feb-12 20:28N 49°12' W 123°06'1021.4
2018-Feb-12 20:00N 49°17' W 122°54'10173.8
2018-Feb-12 19:57N 49°12' W 123°06'1021.8
2018-Feb-12 19:30N 49°17' W 122°54'103882.0
2018-Feb-12 19:30N 49°12' W 123°06'1 1.1
2018-Feb-12 19:00N 49°12' W 123°05'9792.4
2018-Feb-12 19:00N 49°17' W 122°54'0 0.0
2018-Feb-12 18:30N 49°17' W 122°54'726211.6
2018-Feb-12 18:30N 49°11' W 122°60'714.6
2018-Feb-12 18:00N 49°17' W 122°54'52064.2
2018-Feb-12 18:00N 49°12' W 122°54'510.4
2018-Feb-12 17:30N 49°17' W 122°54'41555.0
2018-Feb-12 17:30N 49°13' W 122°53'4 8.7
2018-Feb-12 17:00N 49°17' W 122°54'61215.6
2018-Feb-12 17:00N 49°12' W 122°56'2 4.5
2018-Feb-12 16:30N 49°11' W 122°59'71389.1
2018-Feb-12 16:30N 49°17' W 122°54'0 0.0
2018-Feb-12 16:00N 49°17' W 122°54'83047.8
2018-Feb-12 16:00N 49°12' W 123°02'3 5.4
2018-Feb-12 15:30N 49°12' W 123°07'10592.0
2018-Feb-12 15:29N 49°17' W 122°54'1123.3
2018-Feb-12 15:00N 49°12' W 123°09'101833.3
2018-Feb-12 15:00N 49°18' W 122°56'2 3.5
2018-Feb-12 14:30N 49°18' W 122°58'8934.6
2018-Feb-12 14:30N 49°12' W 123°06'715.2
2018-Feb-12 14:00N 49°17' W 122°58'71493.2
2018-Feb-12 14:00N 49°12' W 123°06'0 0.0
2018-Feb-12 13:30N 49°12' W 123°06'726877.5
2018-Feb-12 13:30N 49°17' W 122°58'714.9
2018-Feb-12 13:00N 49°12' W 123°06'726893.5
2018-Feb-12 13:00N 49°17' W 122°58'0 0.0
2018-Feb-12 12:30N 49°17' W 122°58'7340.4
2018-Feb-12 12:29N 49°12' W 123°06'715.6
2018-Feb-12 12:00N 49°17' W 122°58'71415.4
2018-Feb-12 12:00N 49°12' W 123°06'714.9
2018-Feb-12 11:30N 49°17' W 122°58'71495.0
2018-Feb-12 11:30N 49°12' W 123°06'0 0.0
2018-Feb-12 11:00N 49°12' W 123°06'7671.9
2018-Feb-12 10:59N 49°17' W 122°58'0 0.0
2018-Feb-12 10:30N 49°17' W 122°58'7927.9
2018-Feb-12 10:30N 49°12' W 123°06'0 0.0
2018-Feb-12 10:00N 49°12' W 123°06'71280.6
2018-Feb-12 10:00N 49°17' W 122°58'0 0.0
2018-Feb-12 09:30N 49°17' W 122°58'7559.9
2018-Feb-12 09:30N 49°12' W 123°06'0 0.0
2018-Feb-12 09:00N 49°12' W 123°06'0 0.0
2018-Feb-12 08:30N 49°12' W 123°06'726877.5
2018-Feb-12 08:30N 49°17' W 122°58'0 0.0
2018-Feb-12 08:00N 49°17' W 122°58'7384.2
2018-Feb-12 07:59N 49°12' W 123°06'715.5
2018-Feb-12 07:30N 49°17' W 122°58'7455.8
2018-Feb-12 07:29N 49°12' W 123°06'0 0.0
2018-Feb-12 07:00N 49°12' W 123°06'71279.9
2018-Feb-12 07:00N 49°17' W 122°58'715.1
2018-Feb-12 06:30N 49°12' W 123°06'7655.9
2018-Feb-12 06:30N 49°17' W 122°58'0 0.0
2018-Feb-12 06:00N 49°17' W 122°58'7193.4
2018-Feb-12 05:58N 49°12' W 123°06'716.2
2018-Feb-12 05:30N 49°17' W 122°58'0 0.0
2018-Feb-12 05:00N 49°17' W 122°58'72988.2
2018-Feb-12 05:00N 49°12' W 123°06'0 0.0
2018-Feb-12 04:30N 49°12' W 123°06'72068.7
2018-Feb-12 04:30N 49°17' W 122°58'0 0.0
2018-Feb-12 04:00N 49°17' W 122°58'7895.9
2018-Feb-12 04:00N 49°12' W 123°06'715.2
2018-Feb-12 03:30N 49°17' W 122°58'72443.4
2018-Feb-12 03:30N 49°12' W 123°06'714.8
2018-Feb-12 03:00N 49°17' W 122°58'7455.8
2018-Feb-12 02:59N 49°12' W 123°06'715.7
2018-Feb-12 02:30N 49°17' W 122°58'7549.2
2018-Feb-12 02:30N 49°12' W 123°06'715.3
2018-Feb-12 02:00N 49°17' W 122°58'875.7
2018-Feb-12 01:54N 49°12' W 123°07'818.7
2018-Feb-12 01:30N 49°17' W 122°58'8428.7
2018-Feb-12 01:29N 49°12' W 123°08'817.8
2018-Feb-12 01:00N 49°17' W 122°58'829.0
2018-Feb-12 00:43N 49°12' W 123°08'1 3.8
2018-Feb-12 00:30N 49°12' W 123°07'915345.4
2018-Feb-12 00:30N 49°18' W 122°57'612.9
2018-Feb-12 00:00N 49°12' W 123°01'7283.1
2018-Feb-11 23:58N 49°18' W 122°54'612.3
2018-Feb-11 23:30N 49°12' W 122°55'62089.6
2018-Feb-11 23:30N 49°18' W 122°55'2 4.1
2018-Feb-11 23:00N 49°17' W 122°58'8748.4
2018-Feb-11 23:00N 49°10' W 122°59'0 0.1
2018-Feb-11 22:30N 49°10' W 122°59'8351.0
2018-Feb-11 22:29N 49°17' W 122°58'0 0.0
2018-Feb-11 22:00N 49°17' W 122°58'81496.2
2018-Feb-11 22:00N 49°10' W 122°59'0 0.7
2018-Feb-11 21:30N 49°09' W 122°59'81366.9
2018-Feb-11 21:30N 49°17' W 122°58'0 0.0
2018-Feb-11 21:00N 49°17' W 122°58'8979.5
2018-Feb-11 21:00N 49°10' W 122°58'816.0
2018-Feb-11 20:30N 49°17' W 122°58'84070.1
2018-Feb-11 20:30N 49°10' W 122°58'815.9
2018-Feb-11 20:00N 49°17' W 122°58'83597.5
2018-Feb-11 20:00N 49°09' W 122°59'3 5.1
2018-Feb-11 19:30N 49°11' W 122°55'712910.7
2018-Feb-11 19:30N 49°18' W 122°58'3 5.3
2018-Feb-11 19:00N 49°17' W 122°54'4188.9
2018-Feb-11 18:59N 49°13' W 122°53'0 0.8
2018-Feb-11 18:30N 49°13' W 122°53'51740.9
2018-Feb-11 18:30N 49°18' W 122°56'1 2.9
2018-Feb-11 18:00N 49°17' W 122°58'5656.2
2018-Feb-11 18:00N 49°13' W 122°53'511.1
2018-Feb-11 17:30N 49°17' W 122°58'5629.4
2018-Feb-11 17:30N 49°13' W 122°53'511.0
2018-Feb-11 17:00N 49°17' W 122°58'61058.6
2018-Feb-11 17:00N 49°13' W 122°54'3 5.5
2018-Feb-11 16:30N 49°12' W 122°57'6418.7
2018-Feb-11 16:29N 49°17' W 122°58'0 0.0
2018-Feb-11 16:00N 49°17' W 122°58'6175.1
2018-Feb-11 15:58N 49°12' W 123°01'612.5
2018-Feb-11 15:30N 49°17' W 122°58'72511.0
2018-Feb-11 15:30N 49°12' W 123°05'713.9
2018-Feb-11 15:00N 49°17' W 122°58'7224.2
2018-Feb-11 14:58N 49°12' W 123°06'716.2
2018-Feb-11 14:30N 49°17' W 122°58'7897.0
2018-Feb-11 14:30N 49°12' W 123°06'715.0
2018-Feb-11 14:00N 49°17' W 122°58'72986.4
2018-Feb-11 14:00N 49°12' W 123°06'715.2
2018-Feb-11 13:30N 49°17' W 122°58'7548.8
2018-Feb-11 13:30N 49°12' W 123°06'0 0.0
2018-Feb-11 13:00N 49°12' W 123°06'72689.3
2018-Feb-11 13:00N 49°17' W 122°58'0 0.0
2018-Feb-11 12:30N 49°17' W 122°58'7160.1
2018-Feb-11 12:28N 49°12' W 123°06'716.5
2018-Feb-11 12:00N 49°17' W 122°58'7548.5
2018-Feb-11 12:00N 49°12' W 123°06'715.3
2018-Feb-11 11:30N 49°17' W 122°58'7548.5
2018-Feb-11 11:30N 49°12' W 123°06'715.2
2018-Feb-11 11:00N 49°17' W 122°58'7181.7
2018-Feb-11 10:58N 49°12' W 123°06'716.5
2018-Feb-11 10:30N 49°17' W 122°58'7389.8
2018-Feb-11 10:29N 49°12' W 123°06'0 0.0
2018-Feb-11 10:00N 49°12' W 123°06'726893.5
2018-Feb-11 10:00N 49°17' W 122°58'0 0.0
2018-Feb-11 09:30N 49°17' W 122°58'73359.7
2018-Feb-11 09:30N 49°12' W 123°06'715.0
2018-Feb-11 09:00N 49°17' W 122°58'72691.0
2018-Feb-11 09:00N 49°12' W 123°06'0 0.0
2018-Feb-11 08:30N 49°12' W 123°06'726893.5
2018-Feb-11 08:30N 49°17' W 122°58'0 0.0
2018-Feb-11 08:00N 49°17' W 122°58'72988.2
2018-Feb-11 08:00N 49°12' W 123°06'0 0.0
2018-Feb-11 07:30N 49°12' W 123°06'0 0.0
2018-Feb-11 07:00N 49°12' W 123°06'0 0.0
2018-Feb-11 06:29N 49°12' W 123°06'0 0.0
2018-Feb-11 05:55N 49°12' W 123°06'0 0.0
2018-Feb-11 05:30N 49°12' W 123°06'0 0.0
2018-Feb-11 05:00N 49°12' W 123°06'0 0.0
2018-Feb-11 04:30N 49°12' W 123°06'0 0.0
2018-Feb-11 04:00N 49°12' W 123°06'2 3.1
2018-Feb-11 03:19N 49°12' W 123°09'0 0.1
2018-Feb-11 03:00N 49°12' W 123°09'1 2.5
2018-Feb-11 02:30N 49°13' W 123°11'2 4.3
2018-Feb-11 02:00N 49°14' W 123°14'2 4.9
2018-Feb-11 01:30N 49°16' W 123°17'3 6.6
2018-Feb-11 01:00N 49°18' W 123°21'3 6.9
2018-Feb-11 00:30N 49°19' W 123°25'4 6.0
2018-Feb-10 23:54N 49°23' W 123°26'2 6.0
2018-Feb-10 23:30N 49°25' W 123°27'3 6.3
2018-Feb-10 23:00N 49°29' W 123°28'3 5.6
2018-Feb-10 22:29N 49°31' W 123°28'0 0.5
2018-Feb-10 22:00N 49°32' W 123°29'0 0.7
2018-Feb-10 21:28N 49°31' W 123°29'1 1.3
2018-Feb-10 21:00N 49°31' W 123°28'1 2.5
2018-Feb-10 20:30N 49°30' W 123°28'2 4.7
2018-Feb-10 20:00N 49°27' W 123°28'2 4.4
2018-Feb-10 19:29N 49°25' W 123°27'2 3.8
2018-Feb-10 19:00N 49°23' W 123°25'2 4.2
2018-Feb-10 18:30N 49°21' W 123°26'2 4.5
2018-Feb-10 18:00N 49°19' W 123°25'2 4.8
2018-Feb-10 17:30N 49°18' W 123°22'2 4.4
2018-Feb-10 17:00N 49°17' W 123°19'2 4.2
2018-Feb-10 16:30N 49°16' W 123°17'2 4.0
2018-Feb-10 16:00N 49°14' W 123°14'2 4.1
2018-Feb-10 15:30N 49°13' W 123°12'2 2.8
2018-Feb-10 14:57N 49°13' W 123°09'0 0.4
2018-Feb-10 14:30N 49°12' W 123°09'1 1.2
2018-Feb-10 13:59N 49°13' W 123°10'4 7.7
2018-Feb-10 13:30N 49°15' W 123°15'0 0.9
2018-Feb-10 12:59N 49°15' W 123°16'2 3.8
2018-Feb-10 12:30N 49°16' W 123°18'2 3.9
2018-Feb-10 12:00N 49°16' W 123°21'2 4.7
2018-Feb-10 11:30N 49°14' W 123°23'4 7.1
2018-Feb-10 11:00N 49°11' W 123°26'5 6.9
2018-Feb-10 10:13N 49°06' W 123°30'2 7.0
2018-Feb-10 09:57N 49°04' W 123°31'3 6.8
2018-Feb-10 09:28N 49°02' W 123°34'3 6.1
2018-Feb-10 09:00N 48°59' W 123°35'3 6.6
2018-Feb-10 08:30N 48°57' W 123°32'4 7.1
2018-Feb-10 08:00N 48°54' W 123°28'4 7.4
2018-Feb-10 07:30N 48°52' W 123°24'4 7.0
2018-Feb-10 07:00N 48°49' W 123°21'32173.9
2018-Feb-10 06:49N 49°17' W 122°58'35112.6
2018-Feb-10 06:30N 48°45' W 123°21'3518251.3
2018-Feb-10 06:30N 49°18' W 122°59'3 6.4
2018-Feb-10 06:00N 49°18' W 123°03'389888.5
2018-Feb-10 06:00N 48°41' W 123°21'3877.4
2018-Feb-10 05:30N 49°19' W 123°10'4250673.0
2018-Feb-10 05:30N 48°37' W 123°21'4181.8
2018-Feb-10 05:00N 49°18' W 123°17'4413280.7
2018-Feb-10 05:00N 48°34' W 123°19'3 7.0
2018-Feb-10 04:30N 48°30' W 123°17'4721093.9
2018-Feb-10 04:30N 49°17' W 123°23'5 9.2
2018-Feb-10 04:00N 49°16' W 123°30'504318.3
2018-Feb-10 04:00N 48°27' W 123°15'4 7.5
2018-Feb-10 03:30N 48°23' W 123°18'54 3.4
2018-Feb-09 11:30N 49°16' W 123°33'54107.3
2018-Feb-09 11:00N 48°24' W 123°17'5627.9
2018-Feb-09 09:00N 49°19' W 123°12'3 6.1
2018-Feb-09 08:30N 49°19' W 123°08'6 1.0
2018-Feb-09 02:30N 49°18' W 122°58'0 0.0
2018-Feb-08 22:30N 49°17' W 122°58'3 3.0
2018-Feb-08 21:30N 49°17' W 122°54'9 3.5
2018-Feb-08 19:00N 49°18' W 123°07'0 0.0
2018-Feb-08 16:30N 49°18' W 123°07'0 0.0
2018-Feb-08 15:30N 49°18' W 123°07'  
Track history (hours):
 
Tides and Currents Weather Stations Pressure Air Temp Water Temp Dewpoint Dewpoint Depression Visibility Wind Speed Wind Dir Waves Ship Positions

Storm Wave

Last reported at 2018-Feb-18 09:00 UTC. Time now 2018-Feb-18 09:13 UTC.
Position N 49°11' W 122°60'.

Length 19 m; draft 4.3 m.

Type: Tug. MMSI: 316001222.

Date/timePositionNaut miles runAvg speedWind from/ knotsBaromVisibWave heightAir tempDewpointWater temp
2018-Feb-18 09:00N 49°11' W 122°60'6204.7
2018-Feb-18 08:58N 49°17' W 122°58'714.0
2018-Feb-18 08:30N 49°11' W 122°55'723969.7
2018-Feb-18 08:30N 49°17' W 122°58'0 0.0
2018-Feb-18 08:00N 49°17' W 122°58'81417.8
2018-Feb-18 08:00N 49°10' W 122°57'4 9.0
2018-Feb-18 07:30N 49°13' W 122°52'610814.0
2018-Feb-18 07:30N 49°17' W 122°58'1119.9
2018-Feb-18 06:56N 49°13' W 122°43'2 5.1
2018-Feb-18 06:30N 49°12' W 122°40'0 0.1
2018-Feb-18 06:00N 49°12' W 122°40'1 1.5
2018-Feb-18 05:26N 49°12' W 122°41'2 3.8
2018-Feb-18 05:00N 49°13' W 122°43'2 4.4
2018-Feb-18 04:30N 49°13' W 122°47'3 5.4
2018-Feb-18 04:00N 49°13' W 122°51'2 4.3
2018-Feb-18 03:30N 49°12' W 122°54'1 2.7
2018-Feb-18 02:59N 49°11' W 122°55'2 3.4
2018-Feb-18 02:30N 49°10' W 122°56'2 5.0
2018-Feb-18 02:00N 49°09' W 123°00'3 5.4
2018-Feb-18 01:29N 49°08' W 123°04'2 5.2
2018-Feb-18 01:00N 49°07' W 123°07'3 5.0
2018-Feb-18 00:30N 49°07' W 123°11'3 5.0
2018-Feb-17 23:58N 49°08' W 123°15'2 5.1
2018-Feb-17 23:29N 49°06' W 123°18'1 3.0
2018-Feb-17 23:00N 49°06' W 123°20'3 5.8
2018-Feb-17 22:29N 49°08' W 123°23'3 6.2
2018-Feb-17 21:59N 49°11' W 123°26'3 6.3
2018-Feb-17 21:29N 49°13' W 123°29'3 6.3
2018-Feb-17 21:00N 49°16' W 123°32'3 5.9
2018-Feb-17 20:29N 49°18' W 123°35'2 5.2
2018-Feb-17 20:00N 49°20' W 123°38'1 0.1
2018-Feb-17 12:52N 49°20' W 123°37'2 6.5
2018-Feb-17 12:29N 49°18' W 123°35'3 6.6
2018-Feb-17 12:00N 49°16' W 123°31'4 6.1
2018-Feb-17 11:23N 49°13' W 123°27'2 6.3
2018-Feb-17 11:00N 49°12' W 123°25'3 6.2
2018-Feb-17 10:29N 49°09' W 123°22'3 5.7
2018-Feb-17 09:57N 49°06' W 123°20'3 6.2
2018-Feb-17 09:27N 49°08' W 123°15'3 6.4
2018-Feb-17 09:00N 49°07' W 123°11'4 8.8
2018-Feb-17 08:30N 49°08' W 123°04'5 9.0
2018-Feb-17 08:00N 49°09' W 122°58'4 8.9
2018-Feb-17 07:30N 49°13' W 122°53'0 0.3
2018-Feb-17 07:00N 49°13' W 122°54'2 4.4
2018-Feb-17 06:30N 49°13' W 122°50'1 2.4
2018-Feb-17 06:00N 49°13' W 122°48'0 0.9
2018-Feb-17 05:30N 49°13' W 122°49'3 5.2
2018-Feb-17 05:00N 49°13' W 122°53'1 1.9
2018-Feb-17 04:30N 49°12' W 122°54'1 1.7
2018-Feb-17 04:00N 49°13' W 122°53'6115.7
2018-Feb-17 03:57N 49°17' W 122°58'614.4
2018-Feb-17 03:30N 49°11' W 122°55'724530.2
2018-Feb-17 03:30N 49°18' W 122°59'2 4.4
2018-Feb-17 03:00N 49°18' W 123°02'9468.4
2018-Feb-17 02:59N 49°09' W 122°57'1123.4
2018-Feb-17 02:30N 49°18' W 123°07'105246.3
2018-Feb-17 02:30N 49°09' W 123°01'2 4.6
2018-Feb-17 02:00N 49°08' W 123°04'1243583.9
2018-Feb-17 02:00N 49°19' W 123°12'4 8.6
2018-Feb-17 01:30N 49°18' W 123°19'142715.8
2018-Feb-17 01:30N 49°07' W 123°07'1631.5
2018-Feb-17 01:00N 49°17' W 123°24'14462.4
2018-Feb-17 00:59N 49°07' W 123°10'2 4.7
2018-Feb-17 00:30N 49°08' W 123°13'14709.0
2018-Feb-17 00:29N 49°17' W 123°31'4 7.9
2018-Feb-16 23:59N 49°16' W 123°37'16270.1
2018-Feb-16 23:56N 49°06' W 123°17'2 4.5
2018-Feb-16 23:30N 49°06' W 123°20'3 5.0
2018-Feb-16 22:59N 49°08' W 123°23'3 5.2
2018-Feb-16 22:30N 49°10' W 123°26'3 5.4
2018-Feb-16 22:00N 49°12' W 123°29'3 5.4
2018-Feb-16 21:30N 49°13' W 123°32'3 5.1
2018-Feb-16 21:00N 49°15' W 123°35'2 4.0
2018-Feb-16 20:29N 49°17' W 123°36'1429.3
2018-Feb-16 19:59N 49°12' W 123°57'166264.1
2018-Feb-16 19:59N 49°16' W 123°34'4 7.1
2018-Feb-16 19:28N 49°13' W 123°30'3 6.8
2018-Feb-16 19:00N 49°11' W 123°27'4 6.8
2018-Feb-16 18:28N 49°08' W 123°23'5 5.9
2018-Feb-16 17:40N 49°07' W 123°16'1 7.6
2018-Feb-16 17:30N 49°08' W 123°14'285100.6
2018-Feb-16 17:29N 49°12' W 123°57'3261.6
2018-Feb-16 16:58N 49°07' W 123°08'3 6.4
2018-Feb-16 16:30N 49°08' W 123°04'3 6.5
2018-Feb-16 16:00N 49°09' W 123°00'1 1.9
2018-Feb-16 15:30N 49°09' W 122°59'2 4.9
2018-Feb-16 15:00N 49°11' W 122°55'2 4.7
2018-Feb-16 14:30N 49°13' W 122°53'34120.1
2018-Feb-16 14:13N 49°15' W 123°45'34153.7
2018-Feb-16 14:00N 49°13' W 122°53'33777.1
2018-Feb-16 13:58N 49°15' W 123°43'3268.2
2018-Feb-16 13:30N 49°11' W 122°55'2958.5
2018-Feb-16 13:00N 49°16' W 123°39'2811246.8
2018-Feb-16 13:00N 49°09' W 122°57'2 3.9
2018-Feb-16 12:30N 49°09' W 122°60'257433.4
2018-Feb-16 12:30N 49°16' W 123°36'2 3.1
2018-Feb-16 12:00N 49°17' W 123°34'22557.9
2018-Feb-16 11:58N 49°08' W 123°03'2 4.1
2018-Feb-16 11:30N 49°07' W 123°05'202386.9
2018-Feb-16 11:30N 49°17' W 123°31'1837.1
2018-Feb-16 11:00N 49°06' W 123°08'173051.7
2018-Feb-16 11:00N 49°17' W 123°28'2 4.5
2018-Feb-16 10:30N 49°18' W 123°25'14380.8
2018-Feb-16 10:28N 49°07' W 123°12'2 4.1
2018-Feb-16 10:00N 49°08' W 123°15'114126.4
2018-Feb-16 10:00N 49°18' W 123°21'2 4.4
2018-Feb-16 09:30N 49°19' W 123°18'121611.5
2018-Feb-16 09:30N 49°07' W 123°17'1225.0
2018-Feb-16 09:00N 49°19' W 123°15'13485.2
2018-Feb-16 08:58N 49°06' W 123°20'1430.0
2018-Feb-16 08:30N 49°19' W 123°12'13494.0
2018-Feb-16 08:29N 49°07' W 123°21'1430.2
2018-Feb-16 08:00N 49°19' W 123°09'141315.7
2018-Feb-16 07:59N 49°08' W 123°23'1531.4
2018-Feb-16 07:30N 49°18' W 123°05'151124.6
2018-Feb-16 07:30N 49°10' W 123°25'1836.3
2018-Feb-16 07:00N 49°18' W 123°01'193546.9
2018-Feb-16 07:00N 49°11' W 123°27'1 1.9
2018-Feb-16 06:30N 49°12' W 123°28'203505.0
2018-Feb-16 06:30N 49°17' W 122°58'0 0.0
2018-Feb-16 06:00N 49°17' W 122°58'211607.2
2018-Feb-16 06:00N 49°12' W 123°30'2143.1
2018-Feb-16 05:30N 49°17' W 122°58'21771.3
2018-Feb-16 05:29N 49°13' W 123°31'2145.3
2018-Feb-16 05:00N 49°17' W 122°58'22157.4
2018-Feb-16 04:52N 49°14' W 123°32'2260.4
2018-Feb-16 04:30N 49°17' W 122°58'22614.5
2018-Feb-16 04:28N 49°15' W 123°32'2247.2
2018-Feb-16 04:00N 49°17' W 122°58'231653.3
2018-Feb-16 03:59N 49°16' W 123°33'2346.3
2018-Feb-16 03:30N 49°17' W 122°58'23230.3
2018-Feb-16 03:24N 49°17' W 123°34'2358.4
2018-Feb-16 03:00N 49°17' W 122°58'241701.8
2018-Feb-16 03:00N 49°17' W 123°35'2448.6
2018-Feb-16 02:30N 49°17' W 122°58'25591.2
2018-Feb-16 02:28N 49°19' W 123°36'2546.9
2018-Feb-16 01:56N 49°17' W 122°58'0 0.0
2018-Feb-16 01:30N 49°17' W 122°58'0 0.0
2018-Feb-16 01:00N 49°17' W 122°58'0 0.0
2018-Feb-16 00:30N 49°17' W 122°58'0 0.0
2018-Feb-16 00:00N 49°17' W 122°58'0 0.0
2018-Feb-15 23:30N 49°17' W 122°58'0 0.0
2018-Feb-15 23:00N 49°17' W 122°58'0 0.0
2018-Feb-15 22:30N 49°17' W 122°58'0 0.0
2018-Feb-15 22:00N 49°17' W 122°58'0 0.0
2018-Feb-15 21:30N 49°17' W 122°58'0 0.0
2018-Feb-15 21:00N 49°17' W 122°58'2 3.6
2018-Feb-15 20:30N 49°18' W 122°56'1 2.5
2018-Feb-15 20:00N 49°17' W 122°54'3 5.6
2018-Feb-15 19:28N 49°17' W 122°58'0 0.0
2018-Feb-15 19:00N 49°17' W 122°58'0 0.0
2018-Feb-15 18:30N 49°17' W 122°58'0 0.0
2018-Feb-15 18:00N 49°17' W 122°58'2682.6
2018-Feb-15 17:42N 49°20' W 123°38'2 8.5
2018-Feb-15 17:30N 49°19' W 123°36'248011.8
2018-Feb-15 17:30N 49°17' W 122°58'0 0.0
2018-Feb-15 17:00N 49°17' W 122°58'221304.9
2018-Feb-15 16:59N 49°15' W 123°32'2244.5
2018-Feb-15 16:30N 49°17' W 122°58'207935.9
2018-Feb-15 16:30N 49°12' W 123°28'2039.9
2018-Feb-15 16:00N 49°17' W 122°58'192297.8
2018-Feb-15 16:00N 49°09' W 123°24'2142.6
2018-Feb-15 15:30N 49°17' W 122°54'203583.1
2018-Feb-15 15:30N 49°06' W 123°20'4 7.4
2018-Feb-15 15:00N 49°08' W 123°15'1628922.4
2018-Feb-15 15:00N 49°17' W 122°55'3 5.0
2018-Feb-15 14:30N 49°18' W 122°59'13674.0
2018-Feb-15 14:29N 49°07' W 123°09'1326.9
2018-Feb-15 14:00N 49°17' W 122°58'11826.1
2018-Feb-15 14:00N 49°07' W 123°05'1123.1
2018-Feb-15 13:30N 49°17' W 122°58'101200.0
2018-Feb-15 13:30N 49°08' W 123°04'1021.0
2018-Feb-15 13:00N 49°17' W 122°58'81046.1
2018-Feb-15 13:00N 49°09' W 122°60'816.5
2018-Feb-15 12:30N 49°17' W 122°58'8599.1
2018-Feb-15 12:30N 49°09' W 122°59'1 1.4
2018-Feb-15 12:00N 49°09' W 122°60'82656.2
2018-Feb-15 12:00N 49°17' W 122°58'0 0.0
2018-Feb-15 11:30N 49°17' W 122°58'93394.1
2018-Feb-15 11:30N 49°08' W 123°03'3 5.6
2018-Feb-15 11:00N 49°07' W 123°06'1221339.7
2018-Feb-15 11:00N 49°17' W 122°58'0 0.0
2018-Feb-15 10:30N 49°17' W 122°58'132641.1
2018-Feb-15 10:30N 49°07' W 123°10'1326.7
2018-Feb-15 10:00N 49°17' W 122°58'146236.8
2018-Feb-15 10:00N 49°08' W 123°14'1426.9
2018-Feb-15 09:29N 49°17' W 122°58'16284.6
2018-Feb-15 09:26N 49°07' W 123°17'1638.6
2018-Feb-15 09:00N 49°17' W 122°58'18832.7
2018-Feb-15 08:59N 49°06' W 123°20'2 3.2
2018-Feb-15 08:30N 49°06' W 123°22'1968698.9
2018-Feb-15 08:30N 49°17' W 122°58'0 0.0
2018-Feb-15 08:00N 49°17' W 122°58'18557.4
2018-Feb-15 07:58N 49°08' W 123°23'3 5.6
2018-Feb-15 07:30N 49°11' W 123°22'1760493.0
2018-Feb-15 07:30N 49°17' W 122°58'0 0.0
2018-Feb-15 07:00N 49°17' W 122°58'15785.1
2018-Feb-15 06:59N 49°13' W 123°21'2 5.0
2018-Feb-15 06:30N 49°16' W 123°20'2 4.3
2018-Feb-15 06:00N 49°18' W 123°21'2 3.4
2018-Feb-15 05:30N 49°20' W 123°22'1 1.6
2018-Feb-15 04:59N 49°20' W 123°23'1 2.6
2018-Feb-15 04:29N 49°20' W 123°25'1 2.6
2018-Feb-15 04:00N 49°19' W 123°27'2 3.4
2018-Feb-15 03:30N 49°20' W 123°29'2 4.6
2018-Feb-15 03:00N 49°21' W 123°32'3 4.5
2018-Feb-15 02:25N 49°22' W 123°36'2 4.6
2018-Feb-15 01:56N 49°23' W 123°39'3 0.2
2018-Feb-14 07:52N 49°22' W 123°35'2 4.2
2018-Feb-14 07:28N 49°22' W 123°32'2 4.1
2018-Feb-14 07:00N 49°21' W 123°30'2 4.0
2018-Feb-14 06:30N 49°20' W 123°27'19135.6
2018-Feb-14 06:22N 49°17' W 122°58'0 0.3
2018-Feb-14 06:00N 49°18' W 122°59'166437.7
2018-Feb-14 06:00N 49°19' W 123°23'3 5.5
2018-Feb-14 05:30N 49°18' W 123°20'121070.7
2018-Feb-14 05:30N 49°18' W 123°01'3 5.2
2018-Feb-14 05:00N 49°18' W 123°05'81016.2
2018-Feb-14 05:00N 49°16' W 123°17'612.4
2018-Feb-14 04:30N 49°19' W 123°09'6237.3
2018-Feb-14 04:29N 49°15' W 123°15'4 8.3
2018-Feb-14 04:00N 49°19' W 123°14'6430.9
2018-Feb-14 04:00N 49°13' W 123°11'714.9
2018-Feb-14 03:30N 49°18' W 123°19'10167.4
2018-Feb-14 03:27N 49°12' W 123°06'1329.8
2018-Feb-14 03:00N 49°17' W 123°24'131616.0
2018-Feb-14 03:00N 49°12' W 123°05'0 0.0
2018-Feb-14 02:30N 49°12' W 123°05'2041.2
2018-Feb-14 02:00N 49°16' W 123°35'208018.6
2018-Feb-14 02:00N 49°12' W 123°05'0 0.0
2018-Feb-14 01:30N 49°12' W 123°05'1 1.7
2018-Feb-14 01:00N 49°12' W 123°06'0 0.0
2018-Feb-14 00:30N 49°12' W 123°06'0 0.0
2018-Feb-13 23:56N 49°12' W 123°06'0 0.0
2018-Feb-13 23:30N 49°12' W 123°06'0 0.0
2018-Feb-13 22:58N 49°12' W 123°06'0 0.0
2018-Feb-13 22:30N 49°12' W 123°06'0 0.0
2018-Feb-13 22:00N 49°12' W 123°06'0 0.0
2018-Feb-13 21:28N 49°12' W 123°06'0 0.0
2018-Feb-13 20:55N 49°12' W 123°06'0 0.0
2018-Feb-13 20:30N 49°12' W 123°06'0 0.0
2018-Feb-13 19:59N 49°12' W 123°06'0 0.0
2018-Feb-13 19:30N 49°12' W 123°06'0 0.0
2018-Feb-13 19:00N 49°12' W 123°06'0 0.0
2018-Feb-13 18:30N 49°12' W 123°06'0 0.0
2018-Feb-13 17:59N 49°12' W 123°06'0 0.0
2018-Feb-13 17:30N 49°12' W 123°06'0 0.0
2018-Feb-13 17:00N 49°12' W 123°06'0 0.0
2018-Feb-13 16:30N 49°12' W 123°06'0 0.0
2018-Feb-13 16:00N 49°12' W 123°06'30140.1
2018-Feb-13 15:47N 49°13' W 123°53'32113.5
2018-Feb-13 15:30N 49°12' W 123°03'31654.3
2018-Feb-13 15:28N 49°13' W 123°51'3575.0
2018-Feb-13 15:00N 49°11' W 122°59'3 6.3
2018-Feb-13 14:28N 49°12' W 122°54'3474.8
2018-Feb-13 14:01N 49°15' W 123°45'371416.7
2018-Feb-13 14:00N 49°13' W 122°49'36300.8
2018-Feb-13 13:53N 49°15' W 123°45'39101.7
2018-Feb-13 13:29N 49°15' W 122°44'38520.2
2018-Feb-13 13:25N 49°16' W 123°43'3993.5
2018-Feb-13 13:00N 49°15' W 122°43'37884.0
2018-Feb-13 12:58N 49°16' W 123°40'3883.4
2018-Feb-13 12:30N 49°17' W 122°42'37685.1
2018-Feb-13 12:27N 49°16' W 123°38'1 3.3
2018-Feb-13 12:00N 49°16' W 123°36'3612966.9
2018-Feb-13 12:00N 49°19' W 122°41'0 0.6
2018-Feb-13 11:30N 49°19' W 122°40'34768.7
2018-Feb-13 11:27N 49°17' W 123°33'3477.3
2018-Feb-13 11:00N 49°17' W 122°40'335575.1
2018-Feb-13 11:00N 49°17' W 123°30'3161.6
2018-Feb-13 10:30N 49°15' W 122°43'2951456.7
2018-Feb-13 10:30N 49°18' W 123°27'2754.1
2018-Feb-13 10:00N 49°14' W 122°46'259003.6
2018-Feb-13 10:00N 49°18' W 123°23'2 4.2
2018-Feb-13 09:30N 49°19' W 123°20'23287.4
2018-Feb-13 09:26N 49°14' W 122°46'2149.3
2018-Feb-13 09:00N 49°19' W 123°17'21843.2
2018-Feb-13 08:58N 49°14' W 122°46'0 0.9
2018-Feb-13 08:30N 49°14' W 122°45'1969737.3
2018-Feb-13 08:30N 49°19' W 123°14'1938.2
2018-Feb-13 08:00N 49°14' W 122°46'171502.8
2018-Feb-13 07:59N 49°19' W 123°11'1632.7
2018-Feb-13 07:30N 49°13' W 122°48'144595.9
2018-Feb-13 07:30N 49°19' W 123°08'1223.8
2018-Feb-13 07:00N 49°13' W 122°52'916962.7
2018-Feb-13 07:00N 49°18' W 123°05'3 5.5
2018-Feb-13 06:30N 49°18' W 123°00'73077.6
2018-Feb-13 06:30N 49°12' W 122°55'612.7
2018-Feb-13 06:00N 49°18' W 122°58'7627.7
2018-Feb-13 06:00N 49°11' W 122°58'2 4.2
2018-Feb-13 05:30N 49°12' W 123°01'7771.0
2018-Feb-13 05:30N 49°18' W 122°56'1 2.4
2018-Feb-13 05:00N 49°17' W 122°55'0 0.9
2018-Feb-13 04:30N 49°17' W 122°54'11149.3
2018-Feb-13 04:26N 49°12' W 123°09'2 4.2
2018-Feb-13 04:00N 49°13' W 123°11'121086.6
2018-Feb-13 04:00N 49°18' W 122°54'1428.4
2018-Feb-13 03:30N 49°14' W 123°14'142380.3
2018-Feb-13 03:30N 49°18' W 122°54'1429.2
2018-Feb-13 03:00N 49°15' W 123°16'141447.2
2018-Feb-13 03:00N 49°18' W 122°54'0 0.0
2018-Feb-13 02:30N 49°18' W 122°54'142359.0
2018-Feb-13 02:30N 49°15' W 123°15'0 0.0
2018-Feb-13 02:00N 49°15' W 123°15'14617.8
2018-Feb-13 01:58N 49°18' W 122°54'1430.4
2018-Feb-13 01:30N 49°15' W 123°15'14463.4
2018-Feb-13 01:28N 49°18' W 122°54'1430.9
2018-Feb-13 01:00N 49°15' W 123°15'14823.7
2018-Feb-13 00:59N 49°18' W 122°54'1429.4
2018-Feb-13 00:30N 49°15' W 123°15'142331.9
2018-Feb-13 00:29N 49°17' W 122°54'1327.7
2018-Feb-13 00:00N 49°14' W 123°14'131608.1
2018-Feb-13 00:00N 49°17' W 122°54'1122.3
2018-Feb-12 23:30N 49°12' W 123°08'111969.8
2018-Feb-12 23:30N 49°17' W 122°54'0 0.0
2018-Feb-12 23:00N 49°17' W 122°54'101839.5
2018-Feb-12 23:00N 49°12' W 123°06'1019.5
2018-Feb-12 22:30N 49°17' W 122°54'101204.8
2018-Feb-12 22:30N 49°12' W 123°06'0 0.0
2018-Feb-12 22:00N 49°12' W 123°06'10383.9
2018-Feb-12 21:59N 49°17' W 122°54'1020.0
2018-Feb-12 21:30N 49°12' W 123°06'10685.3
2018-Feb-12 21:29N 49°17' W 122°54'0 0.0
2018-Feb-12 21:00N 49°17' W 122°54'101127.0
2018-Feb-12 21:00N 49°12' W 123°06'1019.5
2018-Feb-12 20:30N 49°17' W 122°54'10231.4
2018-Feb-12 20:28N 49°12' W 123°06'1021.4
2018-Feb-12 20:00N 49°17' W 122°54'10173.8
2018-Feb-12 19:57N 49°12' W 123°06'1021.8
2018-Feb-12 19:30N 49°17' W 122°54'103882.0
2018-Feb-12 19:30N 49°12' W 123°06'1 1.1
2018-Feb-12 19:00N 49°12' W 123°05'9792.4
2018-Feb-12 19:00N 49°17' W 122°54'0 0.0
2018-Feb-12 18:30N 49°17' W 122°54'726211.6
2018-Feb-12 18:30N 49°11' W 122°60'714.6
2018-Feb-12 18:00N 49°17' W 122°54'52064.2
2018-Feb-12 18:00N 49°12' W 122°54'510.4
2018-Feb-12 17:30N 49°17' W 122°54'41555.0
2018-Feb-12 17:30N 49°13' W 122°53'4 8.7
2018-Feb-12 17:00N 49°17' W 122°54'61215.6
2018-Feb-12 17:00N 49°12' W 122°56'2 4.5
2018-Feb-12 16:30N 49°11' W 122°59'71389.1
2018-Feb-12 16:30N 49°17' W 122°54'0 0.0
2018-Feb-12 16:00N 49°17' W 122°54'83047.8
2018-Feb-12 16:00N 49°12' W 123°02'3 5.4
2018-Feb-12 15:30N 49°12' W 123°07'10592.0
2018-Feb-12 15:29N 49°17' W 122°54'1123.3
2018-Feb-12 15:00N 49°12' W 123°09'101833.3
2018-Feb-12 15:00N 49°18' W 122°56'2 3.5
2018-Feb-12 14:30N 49°18' W 122°58'8934.6
2018-Feb-12 14:30N 49°12' W 123°06'715.2
2018-Feb-12 14:00N 49°17' W 122°58'71493.2
2018-Feb-12 14:00N 49°12' W 123°06'0 0.0
2018-Feb-12 13:30N 49°12' W 123°06'726877.5
2018-Feb-12 13:30N 49°17' W 122°58'714.9
2018-Feb-12 13:00N 49°12' W 123°06'726893.5
2018-Feb-12 13:00N 49°17' W 122°58'0 0.0
2018-Feb-12 12:30N 49°17' W 122°58'7340.4
2018-Feb-12 12:29N 49°12' W 123°06'715.6
2018-Feb-12 12:00N 49°17' W 122°58'71415.4
2018-Feb-12 12:00N 49°12' W 123°06'714.9
2018-Feb-12 11:30N 49°17' W 122°58'71495.0
2018-Feb-12 11:30N 49°12' W 123°06'0 0.0
2018-Feb-12 11:00N 49°12' W 123°06'7671.9
2018-Feb-12 10:59N 49°17' W 122°58'0 0.0
2018-Feb-12 10:30N 49°17' W 122°58'7927.9
2018-Feb-12 10:30N 49°12' W 123°06'0 0.0
2018-Feb-12 10:00N 49°12' W 123°06'71280.6
2018-Feb-12 10:00N 49°17' W 122°58'0 0.0
2018-Feb-12 09:30N 49°17' W 122°58'7559.9
2018-Feb-12 09:30N 49°12' W 123°06'0 0.0
2018-Feb-12 09:00N 49°12' W 123°06'0 0.0
2018-Feb-12 08:30N 49°12' W 123°06'726877.5
2018-Feb-12 08:30N 49°17' W 122°58'0 0.0
2018-Feb-12 08:00N 49°17' W 122°58'7384.2
2018-Feb-12 07:59N 49°12' W 123°06'715.5
2018-Feb-12 07:30N 49°17' W 122°58'7455.8
2018-Feb-12 07:29N 49°12' W 123°06'0 0.0
2018-Feb-12 07:00N 49°12' W 123°06'71279.9
2018-Feb-12 07:00N 49°17' W 122°58'715.1
2018-Feb-12 06:30N 49°12' W 123°06'7655.9
2018-Feb-12 06:30N 49°17' W 122°58'0 0.0
2018-Feb-12 06:00N 49°17' W 122°58'7193.4
2018-Feb-12 05:58N 49°12' W 123°06'716.2
2018-Feb-12 05:30N 49°17' W 122°58'0 0.0
2018-Feb-12 05:00N 49°17' W 122°58'72988.2
2018-Feb-12 05:00N 49°12' W 123°06'0 0.0
2018-Feb-12 04:30N 49°12' W 123°06'72068.7
2018-Feb-12 04:30N 49°17' W 122°58'0 0.0
2018-Feb-12 04:00N 49°17' W 122°58'7895.9
2018-Feb-12 04:00N 49°12' W 123°06'715.2
2018-Feb-12 03:30N 49°17' W 122°58'72443.4
2018-Feb-12 03:30N 49°12' W 123°06'714.8
2018-Feb-12 03:00N 49°17' W 122°58'7455.8
2018-Feb-12 02:59N 49°12' W 123°06'715.7
2018-Feb-12 02:30N 49°17' W 122°58'7549.2
2018-Feb-12 02:30N 49°12' W 123°06'715.3
2018-Feb-12 02:00N 49°17' W 122°58'875.7
2018-Feb-12 01:54N 49°12' W 123°07'818.7
2018-Feb-12 01:30N 49°17' W 122°58'8428.7
2018-Feb-12 01:29N 49°12' W 123°08'817.8
2018-Feb-12 01:00N 49°17' W 122°58'829.0
2018-Feb-12 00:43N 49°12' W 123°08'1 3.8
2018-Feb-12 00:30N 49°12' W 123°07'915345.4
2018-Feb-12 00:30N 49°18' W 122°57'612.9
2018-Feb-12 00:00N 49°12' W 123°01'7283.1
2018-Feb-11 23:58N 49°18' W 122°54'612.3
2018-Feb-11 23:30N 49°12' W 122°55'62089.6
2018-Feb-11 23:30N 49°18' W 122°55'2 4.1
2018-Feb-11 23:00N 49°17' W 122°58'8748.4
2018-Feb-11 23:00N 49°10' W 122°59'0 0.1
2018-Feb-11 22:30N 49°10' W 122°59'8351.0
2018-Feb-11 22:29N 49°17' W 122°58'0 0.0
2018-Feb-11 22:00N 49°17' W 122°58'81496.2
2018-Feb-11 22:00N 49°10' W 122°59'0 0.7
2018-Feb-11 21:30N 49°09' W 122°59'81366.9
2018-Feb-11 21:30N 49°17' W 122°58'0 0.0
2018-Feb-11 21:00N 49°17' W 122°58'8979.5
2018-Feb-11 21:00N 49°10' W 122°58'816.0
2018-Feb-11 20:30N 49°17' W 122°58'84070.1
2018-Feb-11 20:30N 49°10' W 122°58'815.9
2018-Feb-11 20:00N 49°17' W 122°58'83597.5
2018-Feb-11 20:00N 49°09' W 122°59'3 5.1
2018-Feb-11 19:30N 49°11' W 122°55'712910.7
2018-Feb-11 19:30N 49°18' W 122°58'3 5.3
2018-Feb-11 19:00N 49°17' W 122°54'4188.9
2018-Feb-11 18:59N 49°13' W 122°53'0 0.8
2018-Feb-11 18:30N 49°13' W 122°53'51740.9
2018-Feb-11 18:30N 49°18' W 122°56'1 2.9
2018-Feb-11 18:00N 49°17' W 122°58'5656.2
2018-Feb-11 18:00N 49°13' W 122°53'511.1
2018-Feb-11 17:30N 49°17' W 122°58'5629.4
2018-Feb-11 17:30N 49°13' W 122°53'511.0
2018-Feb-11 17:00N 49°17' W 122°58'61058.6
2018-Feb-11 17:00N 49°13' W 122°54'3 5.5
2018-Feb-11 16:30N 49°12' W 122°57'6418.7
2018-Feb-11 16:29N 49°17' W 122°58'0 0.0
2018-Feb-11 16:00N 49°17' W 122°58'6175.1
2018-Feb-11 15:58N 49°12' W 123°01'612.5
2018-Feb-11 15:30N 49°17' W 122°58'72511.0
2018-Feb-11 15:30N 49°12' W 123°05'713.9
2018-Feb-11 15:00N 49°17' W 122°58'7224.2
2018-Feb-11 14:58N 49°12' W 123°06'716.2
2018-Feb-11 14:30N 49°17' W 122°58'7897.0
2018-Feb-11 14:30N 49°12' W 123°06'715.0
2018-Feb-11 14:00N 49°17' W 122°58'72986.4
2018-Feb-11 14:00N 49°12' W 123°06'715.2
2018-Feb-11 13:30N 49°17' W 122°58'7548.8
2018-Feb-11 13:30N 49°12' W 123°06'0 0.0
2018-Feb-11 13:00N 49°12' W 123°06'72689.3
2018-Feb-11 13:00N 49°17' W 122°58'0 0.0
2018-Feb-11 12:30N 49°17' W 122°58'7160.1
2018-Feb-11 12:28N 49°12' W 123°06'716.5
2018-Feb-11 12:00N 49°17' W 122°58'7548.5
2018-Feb-11 12:00N 49°12' W 123°06'715.3
2018-Feb-11 11:30N 49°17' W 122°58'7548.5
2018-Feb-11 11:30N 49°12' W 123°06'715.2
2018-Feb-11 11:00N 49°17' W 122°58'7181.7
2018-Feb-11 10:58N 49°12' W 123°06'716.5
2018-Feb-11 10:30N 49°17' W 122°58'7389.8
2018-Feb-11 10:29N 49°12' W 123°06'0 0.0
2018-Feb-11 10:00N 49°12' W 123°06'726893.5
2018-Feb-11 10:00N 49°17' W 122°58'0 0.0
2018-Feb-11 09:30N 49°17' W 122°58'73359.7
2018-Feb-11 09:30N 49°12' W 123°06'715.0
2018-Feb-11 09:00N 49°17' W 122°58'72691.0
2018-Feb-11 09:00N 49°12' W 123°06'0 0.0
2018-Feb-11 08:30N 49°12' W 123°06'726893.5
2018-Feb-11 08:30N 49°17' W 122°58'0 0.0
2018-Feb-11 08:00N 49°17' W 122°58'72988.2
2018-Feb-11 08:00N 49°12' W 123°06'0 0.0
2018-Feb-11 07:30N 49°12' W 123°06'0 0.0
2018-Feb-11 07:00N 49°12' W 123°06'0 0.0
2018-Feb-11 06:29N 49°12' W 123°06'0 0.0
2018-Feb-11 05:55N 49°12' W 123°06'0 0.0
2018-Feb-11 05:30N 49°12' W 123°06'0 0.0
2018-Feb-11 05:00N 49°12' W 123°06'0 0.0
2018-Feb-11 04:30N 49°12' W 123°06'0 0.0
2018-Feb-11 04:00N 49°12' W 123°06'2 3.1
2018-Feb-11 03:19N 49°12' W 123°09'0 0.1
2018-Feb-11 03:00N 49°12' W 123°09'1 2.5
2018-Feb-11 02:30N 49°13' W 123°11'2 4.3
2018-Feb-11 02:00N 49°14' W 123°14'2 4.9
2018-Feb-11 01:30N 49°16' W 123°17'3 6.6
2018-Feb-11 01:00N 49°18' W 123°21'3 6.9
2018-Feb-11 00:30N 49°19' W 123°25'4 6.0
2018-Feb-10 23:54N 49°23' W 123°26'2 6.0
2018-Feb-10 23:30N 49°25' W 123°27'3 6.3
2018-Feb-10 23:00N 49°29' W 123°28'3 5.6
2018-Feb-10 22:29N 49°31' W 123°28'0 0.5
2018-Feb-10 22:00N 49°32' W 123°29'0 0.7
2018-Feb-10 21:28N 49°31' W 123°29'1 1.3
2018-Feb-10 21:00N 49°31' W 123°28'1 2.5
2018-Feb-10 20:30N 49°30' W 123°28'2 4.7
2018-Feb-10 20:00N 49°27' W 123°28'2 4.4
2018-Feb-10 19:29N 49°25' W 123°27'2 3.8
2018-Feb-10 19:00N 49°23' W 123°25'2 4.2
2018-Feb-10 18:30N 49°21' W 123°26'2 4.5
2018-Feb-10 18:00N 49°19' W 123°25'2 4.8
2018-Feb-10 17:30N 49°18' W 123°22'2 4.4
2018-Feb-10 17:00N 49°17' W 123°19'2 4.2
2018-Feb-10 16:30N 49°16' W 123°17'2 4.0
2018-Feb-10 16:00N 49°14' W 123°14'2 4.1
2018-Feb-10 15:30N 49°13' W 123°12'2 2.8
2018-Feb-10 14:57N 49°13' W 123°09'0 0.4
2018-Feb-10 14:30N 49°12' W 123°09'1 1.2
2018-Feb-10 13:59N 49°13' W 123°10'4 7.7
2018-Feb-10 13:30N 49°15' W 123°15'0 0.9
2018-Feb-10 12:59N 49°15' W 123°16'2 3.8
2018-Feb-10 12:30N 49°16' W 123°18'2 3.9
2018-Feb-10 12:00N 49°16' W 123°21'2 4.7
2018-Feb-10 11:30N 49°14' W 123°23'4 7.1
2018-Feb-10 11:00N 49°11' W 123°26'5 6.9
2018-Feb-10 10:13N 49°06' W 123°30'2 7.0
2018-Feb-10 09:57N 49°04' W 123°31'3 6.8
2018-Feb-10 09:28N 49°02' W 123°34'3 6.1
2018-Feb-10 09:00N 48°59' W 123°35'3 6.6
2018-Feb-10 08:30N 48°57' W 123°32'4 7.1
2018-Feb-10 08:00N 48°54' W 123°28'4 7.4
2018-Feb-10 07:30N 48°52' W 123°24'4 7.0
2018-Feb-10 07:00N 48°49' W 123°21'32173.9
2018-Feb-10 06:49N 49°17' W 122°58'35112.6
2018-Feb-10 06:30N 48°45' W 123°21'3518251.3
2018-Feb-10 06:30N 49°18' W 122°59'3 6.4
2018-Feb-10 06:00N 49°18' W 123°03'389888.5
2018-Feb-10 06:00N 48°41' W 123°21'3877.4
2018-Feb-10 05:30N 49°19' W 123°10'4250673.0
2018-Feb-10 05:30N 48°37' W 123°21'4181.8
2018-Feb-10 05:00N 49°18' W 123°17'4413280.7
2018-Feb-10 05:00N 48°34' W 123°19'3 7.0
2018-Feb-10 04:30N 48°30' W 123°17'4721093.9
2018-Feb-10 04:30N 49°17' W 123°23'5 9.2
2018-Feb-10 04:00N 49°16' W 123°30'504318.3
2018-Feb-10 04:00N 48°27' W 123°15'4 7.5
2018-Feb-10 03:30N 48°23' W 123°18'54 3.4
2018-Feb-09 11:30N 49°16' W 123°33'54107.3
2018-Feb-09 11:00N 48°24' W 123°17'5627.9
2018-Feb-09 09:00N 49°19' W 123°12'3 6.1
2018-Feb-09 08:30N 49°19' W 123°08'6 1.0
2018-Feb-09 02:30N 49°18' W 122°58'0 0.0
2018-Feb-08 22:30N 49°17' W 122°58'3 3.0
2018-Feb-08 21:30N 49°17' W 122°54'9 3.5
2018-Feb-08 19:00N 49°18' W 123°07'0 0.0
2018-Feb-08 16:30N 49°18' W 123°07'0 0.0
2018-Feb-08 15:30N 49°18' W 123°07'  

Dump ship's entire track history